createdAt,value
2023-05-23T00:02:08.190Z,7.03
2023-05-23T00:04:38.440Z,7.53
2023-05-23T00:07:07.388Z,7.60
2023-05-23T00:09:36.112Z,8.20
2023-05-23T00:12:05.331Z,8.10
2023-05-23T00:14:35.361Z,7.70
2023-05-23T00:17:05.280Z,7.80
2023-05-23T00:19:36.774Z,8.23
2023-05-23T00:22:07.078Z,7.10
2023-05-23T00:24:35.725Z,8.13
2023-05-23T00:27:04.535Z,7.57
2023-05-23T00:29:33.392Z,6.00
2023-05-23T00:32:01.934Z,6.00
2023-05-23T00:34:30.626Z,6.90
2023-05-23T00:36:59.814Z,6.57
2023-05-23T00:39:29.864Z,6.90
2023-05-23T00:41:58.717Z,6.13
2023-05-23T00:44:27.849Z,6.60
2023-05-23T00:46:57.702Z,6.87
2023-05-23T00:49:28.330Z,6.00
2023-05-23T00:51:57.701Z,7.77
2023-05-23T00:54:28.437Z,6.00
2023-05-23T00:56:59.330Z,4.70
2023-05-23T00:59:28.266Z,5.87
2023-05-23T01:01:58.550Z,6.23
2023-05-23T01:04:28.415Z,5.73
2023-05-23T01:06:57.870Z,4.67
2023-05-23T01:09:29.993Z,4.67
2023-05-23T01:12:11.654Z,4.57
2023-05-23T01:14:47.530Z,5.00
2023-05-23T01:17:22.082Z,5.07
2023-05-23T01:20:01.149Z,4.53
2023-05-23T01:22:44.361Z,4.53
2023-05-23T01:25:29.061Z,4.47
2023-05-23T01:28:02.930Z,4.70
2023-05-23T01:30:36.346Z,4.47
2023-05-23T01:33:06.633Z,4.97
2023-05-23T01:35:36.416Z,5.20
2023-05-23T01:38:05.434Z,5.10
2023-05-23T01:40:34.051Z,5.20
2023-05-23T01:43:04.351Z,4.87
2023-05-23T01:45:33.864Z,5.13
2023-05-23T01:48:04.649Z,5.13
2023-05-23T01:50:34.030Z,4.60
2023-05-23T01:53:02.793Z,4.30
2023-05-23T01:55:31.652Z,4.97
2023-05-23T01:58:01.524Z,4.73
2023-05-23T02:00:31.517Z,5.20
2023-05-23T02:03:00.862Z,4.80
2023-05-23T02:05:29.576Z,4.63
2023-05-23T02:07:58.183Z,4.20
2023-05-23T02:10:26.837Z,4.70
2023-05-23T02:12:55.420Z,4.30
2023-05-23T02:15:24.465Z,4.20
2023-05-23T02:17:54.482Z,4.43
2023-05-23T02:20:23.284Z,5.30
2023-05-23T02:22:51.929Z,4.40
2023-05-23T02:25:20.738Z,4.80
2023-05-23T02:27:49.407Z,4.80
2023-05-23T02:30:18.221Z,4.40
2023-05-23T02:32:46.880Z,4.83
2023-05-23T02:35:16.852Z,4.73
2023-05-23T02:37:45.442Z,4.63
2023-05-23T02:40:14.360Z,4.90
2023-05-23T02:42:43.175Z,4.97
2023-05-23T02:45:12.432Z,4.40
2023-05-23T02:47:41.401Z,4.30
2023-05-23T02:50:12.035Z,4.43
2023-05-23T02:52:42.373Z,5.10
2023-05-23T02:55:11.275Z,4.27
2023-05-23T02:57:44.495Z,4.70
2023-05-23T03:00:15.181Z,4.40
2023-05-23T03:02:48.063Z,4.40
2023-05-23T03:05:16.821Z,4.03
2023-05-23T03:07:47.963Z,4.63
2023-05-23T03:10:16.927Z,4.67
2023-05-23T03:12:46.341Z,5.40
2023-05-23T03:15:16.789Z,5.27
2023-05-23T03:17:46.794Z,4.30
2023-05-23T03:20:17.649Z,4.70
2023-05-23T03:22:48.286Z,4.50
2023-05-23T03:25:17.482Z,5.83
2023-05-23T03:27:46.040Z,4.83
2023-05-23T03:30:15.251Z,5.20
2023-05-23T03:32:43.872Z,5.43
2023-05-23T03:35:12.681Z,5.13
2023-05-23T03:37:41.653Z,5.67
2023-05-23T03:40:12.158Z,5.97
2023-05-23T03:42:41.942Z,5.40
2023-05-23T03:45:12.289Z,5.17
2023-05-23T03:47:40.979Z,6.13
2023-05-23T03:50:10.668Z,5.20
2023-05-23T03:52:39.662Z,5.50
2023-05-23T03:55:09.408Z,6.03
2023-05-23T03:57:39.298Z,5.53
2023-05-23T04:00:12.093Z,6.07
2023-05-23T04:02:46.231Z,5.77
2023-05-23T04:05:18.664Z,6.20
2023-05-23T04:07:48.300Z,5.43
2023-05-23T04:10:17.150Z,6.03
2023-05-23T04:12:47.911Z,5.43
2023-05-23T04:15:18.341Z,6.20
2023-05-23T04:18:13.478Z,5.53
2023-05-23T04:20:42.613Z,5.10
2023-05-23T04:23:12.743Z,5.30
2023-05-23T04:25:43.516Z,5.33
2023-05-23T04:28:19.197Z,4.63
2023-05-23T04:30:49.385Z,4.10
2023-05-23T04:33:21.669Z,5.20
2023-05-23T04:35:51.221Z,4.90
2023-05-23T04:38:22.081Z,4.13
2023-05-23T04:40:51.187Z,4.03
2023-05-23T04:43:42.806Z,4.30
2023-05-23T04:46:42.299Z,5.30
2023-05-23T04:49:37.676Z,3.07
2023-05-23T04:52:06.706Z,3.87
2023-05-23T04:54:36.255Z,3.37
2023-05-23T04:57:07.348Z,3.10
2023-05-23T04:59:38.220Z,3.43
2023-05-23T05:02:07.821Z,3.13
2023-05-23T05:04:36.663Z,3.43
2023-05-23T05:07:05.778Z,3.53
2023-05-23T05:09:36.411Z,3.70
2023-05-23T05:12:05.171Z,3.50
2023-05-23T05:14:33.919Z,3.03
2023-05-23T05:17:05.635Z,4.07
2023-05-23T05:19:43.414Z,3.73
2023-05-23T05:22:11.993Z,3.90
2023-05-23T05:24:41.890Z,3.50
2023-05-23T05:27:11.877Z,3.20
2023-05-23T05:29:40.671Z,3.80
2023-05-23T05:32:10.691Z,2.70
2023-05-23T05:34:39.553Z,3.33
2023-05-23T05:37:08.740Z,3.27
2023-05-23T05:39:37.474Z,2.73
2023-05-23T05:42:06.960Z,3.67
2023-05-23T05:44:35.821Z,3.27
2023-05-23T05:47:04.588Z,3.57
2023-05-23T05:49:35.175Z,3.80
2023-05-23T05:52:04.472Z,3.37
2023-05-23T05:54:33.032Z,3.57
2023-05-23T05:57:02.198Z,3.40
2023-05-23T05:59:32.496Z,3.90
2023-05-23T06:02:01.673Z,3.53
2023-05-23T06:04:30.494Z,3.40
2023-05-23T06:07:01.947Z,3.23
2023-05-23T06:09:31.184Z,4.40
2023-05-23T06:12:02.966Z,3.57
2023-05-23T06:14:31.707Z,4.80
2023-05-23T06:17:01.323Z,4.13
2023-05-23T06:19:30.002Z,3.50
2023-05-23T06:21:59.478Z,3.63
2023-05-23T06:24:29.524Z,4.03
2023-05-23T06:26:58.404Z,4.00
2023-05-23T06:29:26.999Z,3.87
2023-05-23T06:31:57.232Z,3.77
2023-05-23T06:34:27.199Z,3.77
2023-05-23T06:36:56.231Z,2.90
2023-05-23T06:39:29.437Z,4.30
2023-05-23T06:41:58.285Z,4.33
2023-05-23T06:44:27.040Z,4.37
2023-05-23T06:46:58.896Z,3.57
2023-05-23T06:49:28.076Z,3.87
2023-05-23T06:51:57.620Z,3.83
2023-05-23T06:54:26.420Z,3.37
2023-05-23T06:56:56.313Z,4.53
2023-05-23T06:59:25.739Z,3.53
2023-05-23T07:01:54.897Z,3.47
2023-05-23T07:04:24.839Z,3.27
2023-05-23T07:06:54.642Z,3.40
2023-05-23T07:09:23.562Z,3.10
2023-05-23T07:11:52.903Z,2.33
2023-05-23T07:14:26.822Z,2.57
2023-05-23T07:16:55.833Z,2.83
2023-05-23T07:19:24.951Z,2.20
2023-05-23T07:21:54.688Z,2.50
2023-05-23T07:24:25.378Z,2.87
2023-05-23T07:26:56.923Z,2.70
2023-05-23T07:29:28.333Z,2.80
2023-05-23T07:31:58.955Z,2.60
2023-05-23T07:34:29.195Z,2.27
2023-05-23T07:37:02.375Z,2.27
2023-05-23T07:39:38.010Z,1.93
2023-05-23T07:42:07.785Z,2.47
2023-05-23T07:44:38.289Z,1.93
2023-05-23T07:47:07.664Z,2.20
2023-05-23T07:49:36.332Z,2.93
2023-05-23T07:52:06.989Z,2.43
2023-05-23T07:54:36.949Z,1.70
2023-05-23T07:57:07.379Z,2.47
2023-05-23T07:59:39.741Z,2.23
2023-05-23T08:02:08.587Z,1.90
2023-05-23T08:04:37.770Z,2.87
2023-05-23T08:07:08.453Z,2.13
2023-05-23T08:09:48.356Z,2.43
2023-05-23T08:12:20.642Z,2.70
2023-05-23T08:14:54.372Z,2.57
2023-05-23T08:17:29.783Z,2.37
2023-05-23T08:20:00.644Z,2.03
2023-05-23T08:22:29.872Z,1.80
2023-05-23T08:24:59.642Z,3.00
2023-05-23T08:27:31.309Z,2.17
2023-05-23T08:30:09.767Z,1.87
2023-05-23T08:32:41.209Z,1.90
2023-05-23T08:35:10.257Z,1.87
2023-05-23T08:37:40.276Z,1.70
2023-05-23T08:40:16.154Z,1.70
2023-05-23T08:42:49.530Z,2.00
2023-05-23T08:45:20.870Z,2.17
2023-05-23T08:47:52.502Z,1.73
2023-05-23T08:50:23.318Z,2.23
2023-05-23T08:52:57.814Z,2.17
2023-05-23T08:55:29.180Z,1.50
2023-05-23T08:58:00.641Z,2.47
2023-05-23T09:00:40.692Z,1.97
2023-05-23T09:03:11.656Z,2.20
2023-05-23T09:05:54.858Z,2.33
2023-05-23T09:08:24.928Z,2.30
2023-05-23T09:10:57.931Z,2.07
2023-05-23T09:13:28.532Z,2.30
2023-05-23T09:16:03.019Z,2.60
2023-05-23T09:18:37.733Z,2.73
2023-05-23T09:21:08.823Z,2.27
2023-05-23T09:23:41.310Z,2.10
2023-05-23T09:26:13.324Z,2.40
2023-05-23T09:28:47.158Z,2.20
2023-05-23T09:31:17.812Z,3.10
2023-05-23T09:33:48.710Z,2.77
2023-05-23T09:36:19.465Z,2.50
2023-05-23T09:38:49.555Z,2.47
2023-05-23T09:41:22.364Z,2.20
2023-05-23T09:43:55.007Z,2.20
2023-05-23T09:46:30.052Z,2.77
2023-05-23T09:49:00.305Z,1.83
2023-05-23T09:51:30.330Z,2.17
2023-05-23T09:53:59.239Z,2.47
2023-05-23T09:56:29.578Z,1.67
2023-05-23T09:58:59.448Z,2.10
2023-05-23T10:01:32.208Z,1.90
2023-05-23T10:04:02.109Z,2.10
2023-05-23T10:06:36.467Z,2.60
2023-05-23T10:09:06.558Z,2.00
2023-05-23T10:12:22.875Z,2.60
2023-05-23T10:14:56.085Z,2.47
2023-05-23T10:17:34.143Z,2.00
2023-05-23T10:20:08.485Z,1.80
2023-05-23T10:22:38.235Z,1.90
2023-05-23T10:25:08.586Z,1.67
2023-05-23T10:27:38.773Z,1.97
2023-05-23T10:30:08.775Z,2.07
2023-05-23T10:32:40.948Z,1.60
2023-05-23T10:35:17.725Z,3.03
2023-05-23T10:37:54.050Z,2.07
2023-05-23T10:40:32.669Z,1.57
2023-05-23T10:43:06.940Z,1.90
2023-05-23T10:45:43.401Z,2.10
2023-05-23T10:48:36.261Z,1.63
2023-05-23T10:51:06.666Z,2.10
2023-05-23T10:53:37.555Z,2.30
2023-05-23T10:56:08.467Z,2.10
2023-05-23T10:58:39.679Z,1.97
2023-05-23T11:01:10.079Z,2.13
2023-05-23T11:03:54.754Z,1.93
2023-05-23T11:06:33.424Z,2.10
2023-05-23T11:09:07.359Z,1.83
2023-05-23T11:12:05.391Z,1.87
2023-05-23T11:14:54.896Z,1.93
2023-05-23T11:17:34.726Z,1.87
2023-05-23T11:20:07.269Z,1.70
2023-05-23T11:22:37.765Z,2.87
2023-05-23T11:25:10.315Z,2.27
2023-05-23T11:27:41.589Z,1.90
2023-05-23T11:30:14.000Z,2.17
2023-05-23T11:32:44.048Z,1.50
2023-05-23T11:35:14.084Z,1.70
2023-05-23T11:37:43.060Z,1.37
2023-05-23T11:40:29.277Z,1.77
2023-05-23T11:42:58.179Z,1.77
2023-05-23T11:45:27.678Z,1.60
2023-05-23T11:47:56.515Z,1.73
2023-05-23T11:50:26.515Z,1.97
2023-05-23T11:52:56.595Z,2.07
2023-05-23T11:55:25.610Z,2.03
2023-05-23T11:57:57.887Z,2.00
2023-05-23T12:00:26.574Z,1.30
2023-05-23T12:02:55.480Z,1.50
2023-05-23T12:05:24.483Z,1.77
2023-05-23T12:07:54.761Z,1.97
2023-05-23T12:10:29.362Z,1.77
2023-05-23T12:12:58.231Z,1.77
2023-05-23T12:15:28.750Z,1.60
2023-05-23T12:17:57.774Z,1.73
2023-05-23T12:20:27.920Z,1.53
2023-05-23T12:22:58.668Z,1.27
2023-05-23T12:25:27.866Z,1.77
2023-05-23T12:27:58.178Z,1.63
2023-05-23T12:30:26.934Z,1.30
2023-05-23T12:32:55.842Z,1.40
2023-05-23T12:35:27.924Z,1.40
2023-05-23T12:37:58.986Z,1.50
2023-05-23T12:40:28.154Z,1.43
2023-05-23T12:42:58.192Z,1.63
2023-05-23T12:45:33.938Z,1.57
2023-05-23T12:48:03.938Z,1.67
2023-05-23T12:50:32.797Z,1.50
2023-05-23T12:53:03.105Z,1.23
2023-05-23T12:55:32.178Z,0.97
2023-05-23T12:58:01.335Z,1.87
2023-05-23T13:00:30.577Z,1.53
2023-05-23T13:02:59.746Z,2.03
2023-05-23T13:05:28.689Z,1.67
2023-05-23T13:07:59.725Z,1.57
2023-05-23T13:10:31.935Z,1.67
2023-05-23T13:13:02.471Z,1.57
2023-05-23T13:15:31.819Z,1.57
2023-05-23T13:18:01.029Z,1.47
2023-05-23T13:20:31.325Z,1.50
2023-05-23T13:23:00.934Z,1.70
2023-05-23T13:25:31.685Z,1.70
2023-05-23T13:28:01.904Z,1.77
2023-05-23T13:30:30.785Z,1.47
2023-05-23T13:33:00.034Z,1.70
2023-05-23T13:35:29.611Z,1.40
2023-05-23T13:37:58.804Z,2.17
2023-05-23T13:40:27.959Z,2.40
2023-05-23T13:42:58.776Z,1.90
2023-05-23T13:45:28.279Z,1.57
2023-05-23T13:47:57.193Z,1.80
2023-05-23T13:50:26.312Z,1.30
2023-05-23T13:52:55.260Z,1.67
2023-05-23T13:55:24.316Z,1.50
2023-05-23T13:57:53.173Z,1.23
2023-05-23T14:00:23.884Z,1.17
2023-05-23T14:02:53.027Z,1.20
2023-05-23T14:05:22.532Z,1.40
2023-05-23T14:07:54.210Z,1.40
2023-05-23T14:10:23.660Z,1.20
2023-05-23T14:12:52.586Z,1.43
2023-05-23T14:15:22.880Z,1.20
2023-05-23T14:17:55.568Z,1.43
2023-05-23T14:20:24.920Z,1.73
2023-05-23T14:22:53.973Z,1.20
2023-05-23T14:25:23.134Z,1.23
2023-05-23T14:27:53.358Z,1.77
2023-05-23T14:30:23.667Z,1.50
2023-05-23T14:32:53.947Z,1.83
2023-05-23T14:35:23.709Z,1.73
2023-05-23T14:37:52.854Z,1.60
2023-05-23T14:40:21.949Z,1.63
2023-05-23T14:42:50.902Z,1.83
2023-05-23T14:45:20.981Z,1.60
2023-05-23T14:47:51.770Z,1.90
2023-05-23T14:50:21.158Z,1.80
2023-05-23T14:52:50.288Z,2.20
2023-05-23T14:55:20.772Z,1.47
2023-05-23T14:57:51.213Z,1.73
2023-05-23T15:00:20.632Z,1.50
2023-05-23T15:02:51.467Z,1.63
2023-05-23T15:05:20.820Z,1.97
2023-05-23T15:07:49.826Z,1.80
2023-05-23T15:10:19.125Z,2.07
2023-05-23T15:12:48.093Z,1.83
2023-05-23T15:15:22.897Z,1.23
2023-05-23T15:17:53.743Z,1.80
2023-05-23T15:20:22.708Z,1.57
2023-05-23T15:22:51.784Z,1.67
2023-05-23T15:25:33.905Z,1.77
2023-05-23T15:28:08.070Z,1.23
2023-05-23T15:30:37.681Z,1.27
2023-05-23T15:33:08.686Z,1.90
2023-05-23T15:35:38.282Z,3.30
2023-05-23T15:38:07.797Z,1.23
2023-05-23T15:40:36.886Z,1.53
2023-05-23T15:43:05.835Z,1.80
2023-05-23T15:45:35.160Z,1.90
2023-05-23T15:48:04.250Z,1.40
2023-05-23T15:50:34.734Z,1.30
2023-05-23T15:53:03.686Z,1.40
2023-05-23T15:55:32.676Z,1.07
2023-05-23T15:58:01.559Z,1.23
2023-05-23T16:00:30.529Z,1.50
2023-05-23T16:02:59.822Z,1.43
2023-05-23T16:05:29.872Z,1.40
2023-05-23T16:08:00.287Z,1.50
2023-05-23T16:10:29.261Z,2.03
2023-05-23T16:12:58.222Z,1.70
2023-05-23T16:15:27.273Z,1.13
2023-05-23T16:17:56.077Z,1.30
2023-05-23T16:20:25.104Z,1.50
2023-05-23T16:22:54.015Z,1.50
2023-05-23T16:25:26.283Z,1.33
2023-05-23T16:27:54.984Z,1.77
2023-05-23T16:30:26.501Z,1.83
2023-05-23T16:32:55.978Z,1.73
2023-05-23T16:35:25.169Z,1.40
2023-05-23T16:37:54.218Z,1.47
2023-05-23T16:40:23.371Z,1.90
2023-05-23T16:42:54.585Z,1.33
2023-05-23T16:45:23.455Z,1.40
2023-05-23T16:47:53.637Z,1.93
2023-05-23T16:50:24.203Z,1.50
2023-05-23T16:52:52.977Z,1.47
2023-05-23T16:55:22.034Z,1.73
2023-05-23T16:57:51.698Z,1.83
2023-05-23T17:00:22.560Z,1.63
2023-05-23T17:02:51.812Z,1.90
2023-05-23T17:05:20.840Z,1.23
2023-05-23T17:07:50.173Z,1.73
2023-05-23T17:10:20.612Z,1.07
2023-05-23T17:12:49.624Z,1.33
2023-05-23T17:15:19.364Z,1.73
2023-05-23T17:17:49.605Z,1.60
2023-05-23T17:20:23.946Z,1.30
2023-05-23T17:22:54.801Z,1.20
2023-05-23T17:25:27.502Z,2.10
2023-05-23T17:27:57.364Z,1.40
2023-05-23T17:30:26.585Z,1.90
2023-05-23T17:32:57.193Z,1.60
2023-05-23T17:35:28.371Z,1.47
2023-05-23T17:38:01.103Z,1.60
2023-05-23T17:40:34.527Z,1.20
2023-05-23T17:43:03.599Z,2.07
2023-05-23T17:45:32.600Z,1.63
2023-05-23T17:48:03.650Z,1.73
2023-05-23T17:50:36.070Z,1.37
2023-05-23T17:53:05.109Z,1.40
2023-05-23T17:55:33.961Z,1.37
2023-05-23T17:58:03.992Z,1.57
2023-05-23T18:00:33.774Z,1.30
2023-05-23T18:03:06.363Z,1.97
2023-05-23T18:05:36.076Z,1.50
2023-05-23T18:08:07.957Z,1.57
2023-05-23T18:10:38.354Z,1.60
2023-05-23T18:13:10.544Z,1.30
2023-05-23T18:15:39.280Z,1.40
2023-05-23T18:18:12.295Z,1.97
2023-05-23T18:20:41.756Z,2.27
2023-05-23T18:23:11.751Z,2.00
2023-05-23T18:25:40.934Z,1.27
2023-05-23T18:28:10.194Z,2.03
2023-05-23T18:30:39.592Z,1.20
2023-05-23T18:33:13.020Z,2.27
2023-05-23T18:35:43.569Z,1.00
2023-05-23T18:38:14.923Z,1.30
2023-05-23T18:40:47.600Z,1.67
2023-05-23T18:43:17.721Z,1.30
2023-05-23T18:45:46.939Z,1.93
2023-05-23T18:48:18.387Z,1.77
2023-05-23T18:50:48.410Z,1.50
2023-05-23T18:53:19.875Z,1.70
2023-05-23T18:55:49.238Z,1.47
2023-05-23T18:58:19.034Z,1.70
2023-05-23T19:00:47.830Z,1.57
2023-05-23T19:03:21.677Z,1.23
2023-05-23T19:05:51.832Z,2.33
2023-05-23T19:08:23.033Z,1.60
2023-05-23T19:10:51.974Z,1.47
2023-05-23T19:13:20.817Z,1.90
2023-05-23T19:15:52.191Z,1.60
2023-05-23T19:18:28.745Z,2.07
2023-05-23T19:20:57.862Z,2.13
2023-05-23T19:23:29.220Z,2.20
2023-05-23T19:26:01.119Z,1.90
2023-05-23T19:28:30.412Z,2.20
2023-05-23T19:31:04.353Z,1.83
2023-05-23T19:33:39.453Z,1.50
2023-05-23T19:36:11.672Z,2.07
2023-05-23T19:38:43.473Z,1.63
2023-05-23T19:41:12.505Z,2.00
2023-05-23T19:43:48.539Z,1.37
2023-05-23T19:46:18.463Z,1.70
2023-05-23T19:48:51.374Z,2.10
2023-05-23T19:51:21.258Z,1.67
2023-05-23T19:53:49.989Z,1.90
2023-05-23T19:56:18.791Z,1.40
2023-05-23T19:58:47.372Z,1.80
2023-05-23T20:01:16.580Z,2.03
2023-05-23T20:03:45.957Z,1.63
2023-05-23T20:06:16.954Z,2.23
2023-05-23T20:08:46.088Z,1.17
2023-05-23T20:11:15.827Z,1.50
2023-05-23T20:13:55.705Z,1.53
2023-05-23T20:16:26.580Z,1.17
2023-05-23T20:18:55.728Z,2.27
2023-05-23T20:21:26.688Z,1.33
2023-05-23T20:23:57.056Z,1.57
2023-05-23T20:26:30.407Z,1.27
2023-05-23T20:28:59.891Z,1.40
2023-05-23T20:31:34.325Z,2.13
2023-05-23T20:34:03.432Z,1.73
2023-05-23T20:36:37.287Z,2.20
2023-05-23T20:39:07.883Z,1.47
2023-05-23T20:41:37.498Z,2.13
2023-05-23T20:44:07.313Z,2.07
2023-05-23T20:46:37.569Z,1.47
2023-05-23T20:49:09.612Z,1.93
2023-05-23T20:51:44.585Z,1.73
2023-05-23T20:54:13.965Z,2.03
2023-05-23T20:56:42.668Z,1.50
2023-05-23T20:59:12.294Z,2.03
2023-05-23T21:01:42.093Z,1.87
2023-05-23T21:04:11.146Z,1.50
2023-05-23T21:06:42.137Z,2.20
2023-05-23T21:09:13.792Z,1.73
2023-05-23T21:11:44.497Z,1.47
2023-05-23T21:14:14.715Z,2.03
2023-05-23T21:16:45.039Z,1.90
2023-05-23T21:19:13.813Z,1.57
2023-05-23T21:21:44.768Z,1.77
2023-05-23T21:24:14.337Z,1.73
2023-05-23T21:26:44.969Z,2.03
2023-05-23T21:29:13.988Z,1.87
2023-05-23T21:31:43.115Z,1.80
2023-05-23T21:34:23.249Z,1.93
2023-05-23T21:36:54.714Z,2.43
2023-05-23T21:39:23.489Z,2.10
2023-05-23T21:41:52.172Z,1.57
2023-05-23T21:44:21.493Z,2.30
2023-05-23T21:46:50.387Z,3.03
2023-05-23T21:49:19.197Z,2.83
2023-05-23T21:51:48.136Z,2.73
2023-05-23T21:54:18.661Z,2.43
2023-05-23T21:56:47.477Z,1.80
2023-05-23T21:59:16.502Z,1.63
2023-05-23T22:01:45.494Z,2.20
2023-05-23T22:04:14.676Z,1.67
2023-05-23T22:06:43.407Z,1.60
2023-05-23T22:09:12.513Z,2.13
2023-05-23T22:11:43.370Z,2.07
2023-05-23T22:14:12.251Z,2.27
2023-05-23T22:16:41.327Z,1.90
2023-05-23T22:19:12.559Z,1.93
2023-05-23T22:21:41.485Z,1.70
2023-05-23T22:24:10.177Z,1.80
2023-05-23T22:26:39.331Z,1.87
2023-05-23T22:29:09.594Z,2.03
2023-05-23T22:31:38.328Z,3.60
2023-05-23T22:34:07.012Z,2.47
2023-05-23T22:36:36.542Z,2.77
2023-05-23T22:39:06.091Z,2.30
2023-05-23T22:41:35.854Z,1.93
2023-05-23T22:44:04.509Z,2.70
2023-05-23T22:46:34.650Z,2.07
2023-05-23T22:49:03.868Z,2.20
2023-05-23T22:51:33.937Z,2.67
2023-05-23T22:54:02.547Z,2.17
2023-05-23T22:56:31.201Z,2.37
2023-05-23T22:58:59.793Z,1.77
2023-05-23T23:01:28.457Z,2.27
2023-05-23T23:03:58.456Z,2.50
2023-05-23T23:06:27.150Z,1.43
2023-05-23T23:08:55.821Z,2.67
2023-05-23T23:11:24.429Z,2.93
2023-05-23T23:13:52.987Z,1.87
2023-05-23T23:16:21.901Z,2.17
2023-05-23T23:18:50.610Z,2.50
2023-05-23T23:21:21.039Z,1.93
2023-05-23T23:23:49.850Z,1.87
2023-05-23T23:26:18.568Z,2.83
2023-05-23T23:28:47.477Z,2.27
2023-05-23T23:31:16.130Z,2.20
2023-05-23T23:33:44.719Z,2.03
2023-05-23T23:36:13.261Z,2.00
2023-05-23T23:38:43.220Z,2.33
2023-05-23T23:41:11.884Z,1.77
2023-05-23T23:43:40.563Z,2.27
2023-05-23T23:46:09.103Z,2.03
2023-05-23T23:48:37.663Z,2.03
2023-05-23T23:51:06.833Z,1.73
2023-05-23T23:53:35.398Z,1.83
2023-05-23T23:56:05.562Z,2.30
2023-05-23T23:58:34.111Z,1.80
